createdAt,value
2022-08-14T00:00:59.819Z,39.95
2022-08-14T00:03:32.036Z,39.51
2022-08-14T00:06:25.645Z,39.77
2022-08-14T00:08:43.539Z,39.59
2022-08-14T00:11:06.721Z,39.83
2022-08-14T00:13:37.382Z,40.01
2022-08-14T00:16:07.461Z,39.91
2022-08-14T00:19:06.790Z,39.62
2022-08-14T00:21:11.438Z,39.92
2022-08-14T00:23:43.063Z,39.45
2022-08-14T00:26:13.497Z,40.02
2022-08-14T00:28:44.958Z,39.78
2022-08-14T00:31:15.879Z,40.23
2022-08-14T00:33:51.545Z,40.39
2022-08-14T00:36:37.635Z,40.48
2022-08-14T00:38:48.952Z,40.72
2022-08-14T00:41:18.714Z,40.49
2022-08-14T00:43:50.059Z,40.46
2022-08-14T00:46:33.096Z,40.78
2022-08-14T00:48:50.995Z,41.09
2022-08-14T00:51:22.830Z,40.71
2022-08-14T00:53:53.640Z,41.05
2022-08-14T00:56:23.186Z,41.05
2022-08-14T00:58:56.663Z,41.23
2022-08-14T01:01:28.194Z,41.00
2022-08-14T01:03:59.913Z,40.89
2022-08-14T01:06:34.369Z,40.79
2022-08-14T01:09:04.994Z,40.91
2022-08-14T01:11:37.022Z,40.90
2022-08-14T01:14:25.654Z,41.23
2022-08-14T01:16:39.809Z,41.15
2022-08-14T01:19:27.563Z,41.71
2022-08-14T01:21:57.661Z,41.41
2022-08-14T01:24:30.769Z,41.43
2022-08-14T01:27:00.959Z,41.74
2022-08-14T01:29:58.224Z,41.74
2022-08-14T01:32:06.683Z,41.60
2022-08-14T01:35:17.423Z,41.70
2022-08-14T01:37:10.715Z,41.73
2022-08-14T01:39:41.155Z,42.11
2022-08-14T01:42:31.284Z,42.52
2022-08-14T01:44:43.963Z,42.16
2022-08-14T01:47:21.346Z,42.15
2022-08-14T01:50:01.402Z,42.46
2022-08-14T01:52:34.260Z,42.36
2022-08-14T01:54:57.998Z,42.37
2022-08-14T01:57:23.897Z,42.82
2022-08-14T01:59:56.974Z,42.82
2022-08-14T02:02:27.843Z,43.04
2022-08-14T02:04:59.505Z,43.25
2022-08-14T02:07:44.675Z,42.86
2022-08-14T02:10:02.559Z,43.31
2022-08-14T02:12:41.572Z,43.40
2022-08-14T02:15:09.217Z,43.69
2022-08-14T02:17:39.329Z,43.78
2022-08-14T02:20:12.184Z,43.78
2022-08-14T02:22:47.629Z,43.39
2022-08-14T02:25:14.320Z,43.71
2022-08-14T02:28:26.101Z,43.61
2022-08-14T02:30:17.569Z,44.11
2022-08-14T02:32:47.645Z,44.11
2022-08-14T02:35:19.265Z,44.22
2022-08-14T02:37:51.104Z,43.95
2022-08-14T02:40:32.223Z,45.12
2022-08-14T02:42:57.479Z,44.43
2022-08-14T02:45:33.368Z,44.86
2022-08-14T02:48:05.897Z,44.77
2022-08-14T02:50:39.006Z,45.41
2022-08-14T02:53:09.868Z,45.23
2022-08-14T02:55:40.162Z,44.77
2022-08-14T02:58:11.377Z,45.04
2022-08-14T03:00:43.218Z,45.29
2022-08-14T03:03:14.072Z,45.19
2022-08-14T03:05:44.287Z,44.99
2022-08-14T03:08:16.081Z,45.35
2022-08-14T03:10:49.041Z,46.16
2022-08-14T03:13:21.614Z,45.68
2022-08-14T03:15:55.720Z,45.83
2022-08-14T03:18:31.848Z,45.89
2022-08-14T03:20:59.345Z,45.94
2022-08-14T03:23:30.760Z,46.08
2022-08-14T03:26:00.877Z,46.69
2022-08-14T03:28:33.163Z,46.78
2022-08-14T03:31:02.945Z,47.19
2022-08-14T03:33:37.980Z,47.00
2022-08-14T03:37:38.049Z,46.97
2022-08-14T03:39:21.131Z,47.47
2022-08-14T03:41:24.738Z,48.07
2022-08-14T03:45:17.678Z,47.74
2022-08-14T03:46:52.762Z,47.70
2022-08-14T03:49:05.096Z,47.90
2022-08-14T03:51:37.541Z,47.90
2022-08-14T03:54:11.002Z,48.32
2022-08-14T03:56:43.307Z,48.82
2022-08-14T03:59:17.673Z,49.23
2022-08-14T04:01:58.121Z,49.40
2022-08-14T04:04:17.491Z,49.23
2022-08-14T04:06:48.628Z,49.46
2022-08-14T04:09:19.649Z,49.15
2022-08-14T04:11:50.653Z,49.13
2022-08-14T04:14:20.576Z,49.16
2022-08-14T04:16:52.478Z,49.37
2022-08-14T04:19:24.047Z,49.21
2022-08-14T04:22:02.953Z,49.41
2022-08-14T04:24:25.987Z,49.37
2022-08-14T04:26:55.724Z,49.27
2022-08-14T04:29:25.734Z,49.55
2022-08-14T04:33:10.369Z,49.38
2022-08-14T04:34:27.980Z,49.43
2022-08-14T04:37:22.092Z,49.60
2022-08-14T04:40:04.652Z,49.90
2022-08-14T04:42:53.987Z,50.04
2022-08-14T04:45:25.606Z,50.04
2022-08-14T04:48:38.855Z,50.46
2022-08-14T04:50:53.973Z,50.46
2022-08-14T04:53:35.124Z,50.06
2022-08-14T04:55:58.699Z,50.79
2022-08-14T04:58:32.350Z,50.11
2022-08-14T05:01:13.037Z,50.40
2022-08-14T05:03:39.773Z,50.31
2022-08-14T05:06:38.110Z,50.65
2022-08-14T05:08:56.837Z,50.68
2022-08-14T05:11:16.265Z,50.92
2022-08-14T05:14:17.326Z,51.04
2022-08-14T05:16:17.888Z,50.78
2022-08-14T05:19:19.124Z,50.38
2022-08-14T05:21:57.306Z,50.36
2022-08-14T05:23:53.835Z,50.71
2022-08-14T05:26:24.129Z,50.33
2022-08-14T05:28:54.376Z,50.33
2022-08-14T05:31:24.155Z,50.16
2022-08-14T05:33:56.704Z,50.60
2022-08-14T05:36:27.202Z,50.63
2022-08-14T05:38:57.469Z,50.08
2022-08-14T05:41:31.963Z,51.38
2022-08-14T05:43:58.843Z,49.96
2022-08-14T05:46:28.789Z,49.83
2022-08-14T05:48:59.855Z,49.49
2022-08-14T05:51:30.593Z,48.99
2022-08-14T05:54:09.962Z,48.99
2022-08-14T05:56:32.331Z,48.79
2022-08-14T05:59:02.959Z,49.22
2022-08-14T06:01:32.788Z,48.90
2022-08-14T06:04:04.459Z,48.94
2022-08-14T06:06:38.470Z,49.56
2022-08-14T06:09:10.078Z,48.86
2022-08-14T06:11:40.310Z,49.51
2022-08-14T06:14:21.284Z,49.32
2022-08-14T06:16:45.113Z,49.35
2022-08-14T06:19:18.365Z,49.23
2022-08-14T06:21:46.553Z,49.56
2022-08-14T06:24:19.853Z,49.09
2022-08-14T06:26:51.964Z,48.79
2022-08-14T06:29:22.094Z,48.14
2022-08-14T06:32:00.058Z,47.35
2022-08-14T06:35:03.612Z,46.55
2022-08-14T06:36:56.959Z,45.93
2022-08-14T06:39:36.454Z,45.36
2022-08-14T06:41:59.880Z,45.20
2022-08-14T06:44:32.693Z,44.50
2022-08-14T06:47:04.601Z,44.38
2022-08-14T06:49:43.510Z,44.38
2022-08-14T06:52:07.084Z,44.12
2022-08-14T06:54:38.500Z,43.93
2022-08-14T06:57:09.276Z,43.42
2022-08-14T06:59:39.033Z,42.83
2022-08-14T07:02:30.215Z,42.26
2022-08-14T07:05:22.923Z,42.49
2022-08-14T07:07:49.325Z,42.07
2022-08-14T07:10:22.106Z,41.75
2022-08-14T07:13:03.763Z,41.02
2022-08-14T07:15:25.514Z,40.48
2022-08-14T07:17:57.199Z,40.68
2022-08-14T07:20:30.683Z,40.42
2022-08-14T07:23:07.347Z,39.82
2022-08-14T07:25:32.975Z,39.82
2022-08-14T07:28:04.543Z,39.10
2022-08-14T07:30:35.408Z,39.38
2022-08-14T07:33:05.663Z,39.92
2022-08-14T07:35:57.450Z,39.91
2022-08-14T07:38:12.297Z,39.34
2022-08-14T07:40:45.351Z,38.59
2022-08-14T07:43:15.175Z,38.06
2022-08-14T07:45:46.695Z,37.60
2022-08-14T07:48:19.449Z,37.60
2022-08-14T07:50:50.684Z,37.28
2022-08-14T07:53:21.768Z,37.43
2022-08-14T07:56:00.359Z,37.09
2022-08-14T07:58:33.992Z,37.02
2022-08-14T08:00:58.493Z,36.97
2022-08-14T08:03:30.539Z,36.40
2022-08-14T08:06:00.588Z,36.53
2022-08-14T08:08:32.272Z,36.52
2022-08-14T08:11:03.809Z,36.60
2022-08-14T08:13:39.369Z,35.65
2022-08-14T08:16:08.254Z,35.00
2022-08-14T08:18:38.018Z,35.07
2022-08-14T08:21:11.101Z,34.78
2022-08-14T08:23:50.999Z,34.14
2022-08-14T08:26:14.427Z,33.80
2022-08-14T08:28:45.234Z,32.67
2022-08-14T08:31:15.295Z,32.51
2022-08-14T08:33:49.592Z,32.54
2022-08-14T08:36:19.273Z,31.87
2022-08-14T08:39:16.410Z,31.69
2022-08-14T08:41:22.004Z,32.54
2022-08-14T08:43:52.584Z,31.51
2022-08-14T08:46:23.818Z,31.68
2022-08-14T08:51:35.925Z,31.44
2022-08-14T08:54:14.983Z,31.90
2022-08-14T08:56:46.899Z,31.54
2022-08-14T08:59:31.244Z,31.43
2022-08-14T09:02:03.998Z,30.72
2022-08-14T09:04:45.550Z,31.17
2022-08-14T09:07:14.290Z,30.97
2022-08-14T09:09:54.045Z,31.14
2022-08-14T09:12:24.024Z,31.23
2022-08-14T09:14:53.927Z,30.96
2022-08-14T09:17:26.136Z,30.57
2022-08-14T09:19:56.255Z,29.68
2022-08-14T09:22:35.376Z,30.17
2022-08-14T09:24:58.318Z,30.44
2022-08-14T09:27:29.370Z,31.26
2022-08-14T09:29:59.314Z,29.84
2022-08-14T09:33:09.044Z,29.84
2022-08-14T09:35:16.428Z,29.67
2022-08-14T09:38:01.276Z,29.10
2022-08-14T09:40:57.765Z,28.52
2022-08-14T09:43:35.928Z,27.72
2022-08-14T09:46:10.268Z,27.72
2022-08-14T09:48:40.382Z,28.88
2022-08-14T09:51:14.881Z,28.56
2022-08-14T09:54:18.950Z,28.03
2022-08-14T09:56:30.433Z,27.59
2022-08-14T09:58:52.187Z,27.80
2022-08-14T10:01:22.327Z,27.31
2022-08-14T10:03:56.347Z,26.54
2022-08-14T10:06:29.620Z,26.86
2022-08-14T10:09:01.867Z,27.25
2022-08-14T10:11:36.010Z,27.40
2022-08-14T10:14:35.458Z,26.75
2022-08-14T10:16:54.685Z,25.97
2022-08-14T10:19:28.721Z,25.69
2022-08-14T10:23:12.881Z,25.53
2022-08-14T10:24:45.954Z,24.85
2022-08-14T10:27:24.530Z,25.00
2022-08-14T10:29:58.353Z,24.73
2022-08-14T10:32:36.610Z,24.73
2022-08-14T10:35:14.291Z,24.77
2022-08-14T10:37:49.444Z,25.01
2022-08-14T10:40:43.340Z,25.16
2022-08-14T10:43:03.209Z,25.10
2022-08-14T10:45:35.823Z,25.21
2022-08-14T10:48:25.066Z,24.70
2022-08-14T10:50:45.413Z,24.70
2022-08-14T10:53:17.099Z,24.19
2022-08-14T10:55:48.103Z,23.44
2022-08-14T10:58:24.245Z,24.39
2022-08-14T11:01:00.619Z,24.36
2022-08-14T11:03:55.702Z,24.65
2022-08-14T11:06:24.631Z,24.77
2022-08-14T11:08:55.104Z,25.18
2022-08-14T11:11:35.697Z,24.89
2022-08-14T11:13:58.809Z,24.70
2022-08-14T11:16:30.208Z,23.94
2022-08-14T11:19:00.994Z,24.42
2022-08-14T11:21:34.046Z,24.42
2022-08-14T11:24:54.213Z,24.17
2022-08-14T11:26:40.679Z,23.87
2022-08-14T11:29:12.362Z,23.66
2022-08-14T11:31:42.457Z,23.33
2022-08-14T11:34:32.083Z,23.78
2022-08-14T11:37:02.313Z,23.14
2022-08-14T11:39:23.264Z,23.90
2022-08-14T11:41:56.214Z,23.00
2022-08-14T11:44:46.576Z,22.67
2022-08-14T11:46:57.983Z,22.34
2022-08-14T11:49:34.254Z,22.36
2022-08-14T11:52:02.378Z,22.27
2022-08-14T11:54:34.890Z,22.96
2022-08-14T11:57:05.850Z,23.80
2022-08-14T11:59:35.677Z,23.74
2022-08-14T12:03:00.022Z,23.39
2022-08-14T12:04:53.534Z,23.81
2022-08-14T12:07:23.516Z,23.22
2022-08-14T12:09:57.368Z,22.86
2022-08-14T12:12:36.104Z,22.39
2022-08-14T12:15:02.087Z,21.90
2022-08-14T12:17:47.282Z,21.06
2022-08-14T12:20:09.428Z,19.79
2022-08-14T12:22:44.336Z,19.57
2022-08-14T12:25:17.178Z,19.89
2022-08-14T12:27:53.411Z,19.42
2022-08-14T12:30:43.430Z,20.31
2022-08-14T12:33:34.271Z,19.84
2022-08-14T12:36:08.113Z,20.01
2022-08-14T12:38:43.675Z,20.53
2022-08-14T12:41:21.173Z,20.35
2022-08-14T12:43:57.267Z,20.73
2022-08-14T12:46:37.693Z,20.96
2022-08-14T12:49:20.243Z,20.40
2022-08-14T12:52:01.501Z,20.58
2022-08-14T12:54:32.160Z,19.98
2022-08-14T12:57:14.637Z,19.71
2022-08-14T12:59:43.363Z,19.97
2022-08-14T13:02:25.892Z,20.50
2022-08-14T13:04:58.040Z,20.78
2022-08-14T13:07:32.099Z,20.95
2022-08-14T13:10:12.728Z,20.49
2022-08-14T13:12:43.181Z,20.77
2022-08-14T13:15:10.172Z,20.44
2022-08-14T13:17:51.769Z,20.70
2022-08-14T13:20:24.619Z,21.14
2022-08-14T13:22:56.134Z,21.41
2022-08-14T13:25:27.796Z,20.41
2022-08-14T13:27:59.980Z,20.80
2022-08-14T13:30:29.816Z,20.80
2022-08-14T13:33:00.634Z,20.51
2022-08-14T13:35:30.871Z,20.19
2022-08-14T13:38:02.189Z,20.48
2022-08-14T13:40:32.026Z,20.63
2022-08-14T13:43:02.746Z,19.81
2022-08-14T13:45:59.454Z,19.81
2022-08-14T13:48:06.564Z,20.92
2022-08-14T13:50:38.884Z,21.14
2022-08-14T13:53:11.902Z,21.66
2022-08-14T13:55:45.074Z,21.02
2022-08-14T13:58:33.787Z,20.60
2022-08-14T14:00:53.007Z,20.62
2022-08-14T14:03:30.211Z,20.61
2022-08-14T14:05:58.056Z,21.05
2022-08-14T14:08:46.044Z,20.93
2022-08-14T14:11:00.317Z,20.34
2022-08-14T14:13:32.101Z,20.41
2022-08-14T14:16:05.250Z,20.43
2022-08-14T14:18:37.346Z,20.36
2022-08-14T14:21:09.217Z,19.75
2022-08-14T14:23:39.643Z,19.38
2022-08-14T14:26:13.817Z,19.25
2022-08-14T14:28:44.321Z,19.54
2022-08-14T14:31:14.822Z,19.43
2022-08-14T14:33:48.859Z,18.87
2022-08-14T14:36:24.920Z,18.87
2022-08-14T14:38:57.803Z,18.69
2022-08-14T14:41:38.314Z,18.61
2022-08-14T14:44:10.743Z,19.23
2022-08-14T14:46:45.773Z,19.23
2022-08-14T14:49:16.099Z,18.27
2022-08-14T14:51:51.321Z,19.16
2022-08-14T14:54:30.225Z,19.30
2022-08-14T14:56:54.136Z,19.02
2022-08-14T14:59:24.556Z,18.70
2022-08-14T15:01:57.298Z,18.75
2022-08-14T15:04:27.238Z,18.36
2022-08-14T15:06:58.468Z,18.82
2022-08-14T15:09:28.725Z,18.82
2022-08-14T15:11:58.195Z,19.30
2022-08-14T15:14:56.166Z,18.94
2022-08-14T15:17:00.702Z,18.94
2022-08-14T15:19:31.883Z,20.08
2022-08-14T15:22:01.899Z,20.66
2022-08-14T15:24:31.699Z,20.51
2022-08-14T15:27:03.595Z,19.85
2022-08-14T15:29:35.685Z,19.13
2022-08-14T15:32:09.534Z,19.39
2022-08-14T15:34:50.869Z,19.49
2022-08-14T15:37:13.095Z,19.51
2022-08-14T15:39:44.303Z,19.97
2022-08-14T15:42:17.041Z,20.05
2022-08-14T15:44:57.193Z,20.15
2022-08-14T15:47:27.806Z,20.92
2022-08-14T15:49:54.323Z,20.09
2022-08-14T15:52:32.609Z,20.09
2022-08-14T15:54:57.915Z,20.65
2022-08-14T15:57:27.680Z,19.99
2022-08-14T16:00:21.494Z,19.99
2022-08-14T16:02:46.825Z,20.92
2022-08-14T16:05:18.367Z,21.00
2022-08-14T16:07:50.726Z,21.00
2022-08-14T16:10:30.068Z,21.25
2022-08-14T16:12:53.037Z,21.58
2022-08-14T16:15:24.459Z,21.51
2022-08-14T16:17:56.169Z,21.84
2022-08-14T16:20:41.942Z,22.06
2022-08-14T16:23:11.479Z,22.14
2022-08-14T16:25:37.470Z,22.19
2022-08-14T16:28:09.124Z,21.84
2022-08-14T16:30:40.531Z,21.75
2022-08-14T16:33:11.250Z,21.71
2022-08-14T16:35:55.873Z,21.78
2022-08-14T16:38:45.274Z,22.22
2022-08-14T16:40:53.393Z,22.17
2022-08-14T16:43:26.116Z,21.76
2022-08-14T16:45:57.265Z,21.85
2022-08-14T16:48:57.519Z,21.80
2022-08-14T16:51:01.600Z,22.20
2022-08-14T16:53:35.795Z,22.41
2022-08-14T16:56:23.315Z,22.58
2022-08-14T16:58:51.608Z,22.42
2022-08-14T17:01:25.230Z,22.43
2022-08-14T17:04:03.251Z,22.92
2022-08-14T17:06:52.759Z,22.18
2022-08-14T17:09:45.988Z,22.38
2022-08-14T17:12:28.525Z,22.76
2022-08-14T17:15:03.612Z,22.73
2022-08-14T17:17:40.929Z,22.58
2022-08-14T17:20:33.973Z,22.68
2022-08-14T17:22:48.188Z,23.26
2022-08-14T17:25:22.513Z,23.65
2022-08-14T17:28:52.427Z,24.66
2022-08-14T17:30:58.914Z,25.15
2022-08-14T17:33:40.826Z,25.63
2022-08-14T17:36:21.393Z,24.87
2022-08-14T17:39:13.459Z,25.04
2022-08-14T17:41:48.327Z,26.25
2022-08-14T17:44:45.983Z,26.25
2022-08-14T17:47:10.047Z,25.96
2022-08-14T17:49:51.893Z,25.65
2022-08-14T17:52:34.753Z,25.85
2022-08-14T17:54:58.981Z,25.33
2022-08-14T17:57:28.315Z,26.07
2022-08-14T18:00:00.197Z,26.30
2022-08-14T18:02:35.303Z,26.98
2022-08-14T18:05:09.228Z,26.80
2022-08-14T18:08:00.428Z,27.59
2022-08-14T18:10:52.502Z,27.36
2022-08-14T18:12:43.988Z,28.10
2022-08-14T18:15:17.770Z,27.94
2022-08-14T18:17:52.883Z,28.35
2022-08-14T18:21:39.830Z,28.45
2022-08-14T18:22:53.034Z,28.26
2022-08-14T18:25:23.063Z,28.75
2022-08-14T18:27:53.170Z,28.86
2022-08-14T18:30:31.956Z,29.87
2022-08-14T18:33:01.166Z,29.87
2022-08-14T18:35:58.162Z,30.79
2022-08-14T18:38:45.812Z,31.53
2022-08-14T18:41:00.301Z,32.11
2022-08-14T18:43:59.384Z,32.06
2022-08-14T18:46:59.487Z,32.12
2022-08-14T18:48:54.386Z,33.02
2022-08-14T18:51:45.323Z,32.73
2022-08-14T18:54:02.244Z,32.86
2022-08-14T18:56:54.276Z,32.98
2022-08-14T18:59:43.120Z,32.98
2022-08-14T19:02:34.184Z,33.07
2022-08-14T19:05:08.564Z,33.41
2022-08-14T19:07:39.110Z,33.41
2022-08-14T19:10:17.064Z,33.41
2022-08-14T19:13:03.667Z,33.68
2022-08-14T19:15:36.584Z,34.32
2022-08-14T19:18:29.065Z,34.23
2022-08-14T19:21:13.214Z,34.38
2022-08-14T19:23:43.995Z,34.37
2022-08-14T19:26:36.510Z,34.80
2022-08-14T19:28:59.975Z,34.94
2022-08-14T19:31:37.097Z,35.11
2022-08-14T19:34:07.366Z,35.16
2022-08-14T19:37:05.637Z,35.45
2022-08-14T19:39:54.285Z,36.27
2022-08-14T19:42:28.148Z,35.68
2022-08-14T19:44:58.832Z,36.38
2022-08-14T19:47:41.257Z,36.19
2022-08-14T19:50:30.942Z,36.92
2022-08-14T19:52:41.691Z,36.42
2022-08-14T19:55:20.912Z,36.95
2022-08-14T19:57:58.878Z,36.75
2022-08-14T20:00:30.182Z,36.93
2022-08-14T20:03:11.787Z,37.14
2022-08-14T20:05:45.678Z,37.04
2022-08-14T20:11:01.206Z,37.12
2022-08-14T20:11:06.793Z,37.43
2022-08-14T20:13:14.408Z,37.73
2022-08-14T20:15:47.336Z,37.46
2022-08-14T20:18:49.399Z,37.51
2022-08-14T20:20:52.076Z,37.75
2022-08-14T20:23:23.901Z,38.12
2022-08-14T20:25:57.270Z,37.97
2022-08-14T20:28:30.695Z,37.97
2022-08-14T20:31:18.255Z,38.39
2022-08-14T20:34:24.749Z,38.45
2022-08-14T20:36:42.277Z,38.41
2022-08-14T20:39:15.312Z,38.58
2022-08-14T20:41:51.158Z,38.58
2022-08-14T20:44:41.004Z,38.59
2022-08-14T20:47:16.937Z,38.88
2022-08-14T20:49:47.254Z,38.82
2022-08-14T20:52:20.145Z,39.14
2022-08-14T20:54:51.551Z,39.06
2022-08-14T20:57:21.569Z,38.90
2022-08-14T20:59:56.689Z,39.01
2022-08-14T21:02:38.533Z,39.06
2022-08-14T21:05:17.138Z,39.17
2022-08-14T21:07:41.672Z,39.25
2022-08-14T21:10:36.278Z,39.28
2022-08-14T21:13:25.368Z,39.33
2022-08-14T21:15:20.270Z,39.49
2022-08-14T21:17:53.261Z,39.43
2022-08-14T21:20:25.871Z,39.44
2022-08-14T21:22:54.253Z,39.43
2022-08-14T21:25:25.902Z,39.23
2022-08-14T21:27:59.613Z,39.37
2022-08-14T21:30:46.993Z,39.38
2022-08-14T21:33:01.126Z,39.67
2022-08-14T21:35:31.131Z,39.46
2022-08-14T21:38:03.428Z,39.74
2022-08-14T21:40:42.223Z,40.27
2022-08-14T21:43:05.457Z,40.32
2022-08-14T21:45:36.796Z,40.27
2022-08-14T21:48:12.333Z,40.47
2022-08-14T21:51:02.237Z,40.24
2022-08-14T21:53:22.550Z,40.19
2022-08-14T21:55:52.825Z,40.74
2022-08-14T21:58:54.488Z,40.45
2022-08-14T22:00:56.623Z,40.38
2022-08-14T22:03:27.136Z,40.72
2022-08-14T22:05:58.826Z,40.71
2022-08-14T22:08:28.757Z,40.96
2022-08-14T22:10:59.258Z,40.85
2022-08-14T22:13:32.496Z,41.21
2022-08-14T22:16:02.762Z,40.71
2022-08-14T22:18:34.055Z,40.96
2022-08-14T22:21:05.769Z,41.14
2022-08-14T22:23:35.758Z,40.95
2022-08-14T22:26:08.233Z,41.46
2022-08-14T22:28:39.225Z,41.44
2022-08-14T22:31:22.144Z,41.59
2022-08-14T22:33:50.050Z,41.41
2022-08-14T22:36:42.191Z,41.40
2022-08-14T22:39:11.337Z,41.35
2022-08-14T22:41:42.553Z,41.80
2022-08-14T22:44:16.285Z,41.66
2022-08-14T22:46:47.429Z,41.94
2022-08-14T22:50:31.114Z,42.51
2022-08-14T22:51:52.311Z,42.47
2022-08-14T22:54:52.589Z,42.44
2022-08-14T22:56:55.622Z,42.61
2022-08-14T22:59:36.356Z,42.57
2022-08-14T23:02:03.848Z,42.93
2022-08-14T23:04:35.439Z,42.74
2022-08-14T23:07:22.009Z,43.04
2022-08-14T23:09:41.203Z,42.99
2022-08-14T23:12:28.644Z,43.18
2022-08-14T23:14:46.243Z,43.57
2022-08-14T23:17:17.442Z,43.81
2022-08-14T23:19:48.659Z,43.87
2022-08-14T23:22:20.307Z,43.54
2022-08-14T23:24:51.708Z,43.36
2022-08-14T23:27:32.044Z,44.07
2022-08-14T23:29:55.373Z,44.07
2022-08-14T23:32:25.219Z,43.87
2022-08-14T23:34:54.981Z,44.11
2022-08-14T23:37:26.743Z,44.13
2022-08-14T23:39:57.011Z,44.42
2022-08-14T23:42:40.107Z,44.48
2022-08-14T23:44:58.404Z,44.63
2022-08-14T23:47:28.318Z,44.87
2022-08-14T23:50:00.827Z,44.79
2022-08-14T23:52:50.707Z,44.88
2022-08-14T23:55:11.223Z,44.97
2022-08-14T23:57:43.661Z,45.14
